Aérodrome :
LOGIN :

S'inscrire | Disclaimer

   EN    FR    IT 

 










Légende :    VFR   VFR Marginal   IFR   IFR Intensif   IFR Très Intensif
Visi : 
Plafond : 
>= 8 km
>= 3000ft
5 à 8 km
1000 à 3000 ft
1500m à 5 km
500 à 1000 ft
800 à 1500m
200 à 500 ft
< 800m
< 200 ft
Symboles :   Orages  Brouillard  Fortes neiges  Fortes précipitations  Vent > 20 kt
SIGMETs :   Divers  Orages  Givrage  Turbulence  Onde Orograph.  Cendres Volcan.







- Altitude de l'aérodrome : 357 ft
- Code IATA : TUF
- Voir les cartes d'approche


LFOT - Tours

DERNIER METAR :
  • 191200Z AUTO 06018KT CAVOK 21/03 Q1025 TEMPO 05020G32KT

METARs EXPIRÉS :
  • 191130Z AUTO 05017KT 010V080 CAVOK 20/03 Q1025 TEMPO 05020G32KT
  • 191100Z AUTO 06019KT CAVOK 20/03 Q1025 TEMPO 04017G27KT
  • 191030Z AUTO 05018KT 020V080 CAVOK 19/04 Q1025 TEMPO 04017G27KT
  • 191000Z AUTO 06018KT 030V090 CAVOK 18/04 Q1026 TEMPO 04017G27KT
  • 190930Z AUTO 05016KT CAVOK 17/04 Q1026 TEMPO 04017G27KT

TAF TAF LFOT
Valide du 19 à 12h jusqu'au 20 à 12h UTC


191100Z 1912/2012 05012KT CAVOK
TEMPO 1912/1919 05020G32KT
Pas de NOTAMs connus pour ce terrain.



MET'MAP, la Météo Aéronautique d'un coup d'oeil ! - Copyright ORBIFLY Décembre 2007 - Disclaimer

ORBIFLY MET'MAP TEAM :

Programmation & Développement : Alexandra Zaïnal
Conception & Développement : Baudouin d'Aumeries
Co-Programmation & Développement : Marc-Olivier Méhu
Soutien technique & logistique : Manuel Goepfert

Contact : metmap@orbifly.com




SOURCES & CREDITS :

   NOAA